createdAt,value
2023-10-13T18:55:37.705Z,32.03
2023-10-13T18:58:04.805Z,14.18
2023-10-13T19:00:32.891Z,19.05
2023-10-13T19:02:59.820Z,27.77
2023-10-13T19:05:26.903Z,54.78
2023-10-13T19:07:53.865Z,40.15
2023-10-13T19:10:22.113Z,41.58
2023-10-13T19:12:49.023Z,52.75
2023-10-13T19:15:16.132Z,56.55
2023-10-13T19:17:43.066Z,54.03
2023-10-13T19:20:10.709Z,48.70
2023-10-13T19:22:37.608Z,45.70
2023-10-13T19:25:04.840Z,61.78
2023-10-13T19:27:33.189Z,42.53
2023-10-13T19:30:00.152Z,54.85
2023-10-13T19:32:27.100Z,39.05
2023-10-13T19:34:53.980Z,79.10
2023-10-13T19:37:20.925Z,49.78
2023-10-13T19:39:47.833Z,37.28
2023-10-13T19:42:14.734Z,49.97
2023-10-13T19:44:43.012Z,57.85
2023-10-13T19:47:10.025Z,64.50
2023-10-13T19:49:37.021Z,95.53
2023-10-13T19:52:04.038Z,82.95
2023-10-13T19:54:30.981Z,70.57
2023-10-13T19:56:57.917Z,68.63
2023-10-13T19:59:24.902Z,41.08
2023-10-13T20:01:53.266Z,42.63
2023-10-13T20:04:20.238Z,38.55
2023-10-13T20:06:47.221Z,27.85
2023-10-13T20:09:14.156Z,27.05
2023-10-13T20:11:41.057Z,41.17
2023-10-13T20:14:07.965Z,28.40
2023-10-13T20:16:34.967Z,24.70
2023-10-13T20:19:03.272Z,26.10
2023-10-13T20:21:30.489Z,30.42
2023-10-13T20:23:58.105Z,18.83
2023-10-13T20:26:25.002Z,23.83
2023-10-13T20:28:51.900Z,37.67
2023-10-13T20:31:18.873Z,31.00
2023-10-13T20:33:45.830Z,102.20
2023-10-13T20:36:14.210Z,77.10
2023-10-13T20:38:41.094Z,63.80
2023-10-13T20:41:10.827Z,40.35
2023-10-13T20:43:38.807Z,42.80
2023-10-13T20:46:07.788Z,31.02
2023-10-13T20:48:39.169Z,25.67
2023-10-13T20:51:06.327Z,32.10
2023-10-13T20:53:34.632Z,16.02
2023-10-13T20:56:01.985Z,22.60
2023-10-13T20:58:28.979Z,20.98
2023-10-13T21:00:56.062Z,28.92
2023-10-13T21:03:23.223Z,17.20
2023-10-13T21:05:50.227Z,17.75
2023-10-13T21:08:17.143Z,21.65
2023-10-13T21:10:45.425Z,20.25
2023-10-13T21:13:12.361Z,21.33
2023-10-13T21:15:39.466Z,22.77
2023-10-13T21:18:06.658Z,18.73
2023-10-13T21:20:33.634Z,10.63
2023-10-13T21:23:00.545Z,12.80
2023-10-13T21:25:27.493Z,16.58
2023-10-13T21:27:56.214Z,16.98
2023-10-13T21:30:25.109Z,14.68
2023-10-13T21:32:52.118Z,20.63
2023-10-13T21:35:19.459Z,15.25
2023-10-13T21:37:47.472Z,10.50
2023-10-13T21:40:16.707Z,18.73
2023-10-13T21:42:44.512Z,15.40
2023-10-13T21:45:12.811Z,14.25
2023-10-13T21:47:39.775Z,13.77
2023-10-13T21:50:07.642Z,13.55
2023-10-13T21:52:34.506Z,13.45
2023-10-13T21:55:01.427Z,14.60
2023-10-13T21:57:28.352Z,14.00
2023-10-13T21:59:56.227Z,8.82
2023-10-13T22:02:25.752Z,8.13
2023-10-13T22:04:52.642Z,11.75
2023-10-13T22:07:19.544Z,11.50
2023-10-13T22:09:46.529Z,9.43
2023-10-13T22:12:13.449Z,11.18
2023-10-13T22:14:40.450Z,7.07
2023-10-13T22:17:07.390Z,11.45
2023-10-13T22:19:35.733Z,11.35
2023-10-13T22:22:02.677Z,12.43
2023-10-13T22:24:29.662Z,7.82
2023-10-13T22:26:56.624Z,8.23
2023-10-13T22:29:23.773Z,6.97
2023-10-13T22:31:50.853Z,8.52
2023-10-13T22:34:17.918Z,11.20
2023-10-13T22:36:59.065Z,9.60
2023-10-13T22:39:32.181Z,12.15
2023-10-13T22:41:59.061Z,10.15
2023-10-13T22:44:25.999Z,14.85
2023-10-13T22:46:52.951Z,9.10
2023-10-13T22:49:19.956Z,8.15
2023-10-13T22:51:48.311Z,10.48
2023-10-13T22:54:15.199Z,11.73
2023-10-13T22:56:42.107Z,9.98
2023-10-13T22:59:09.006Z,9.18
